Time;durP1;ratioP1;P1;durP2;ratioP2;P2;SDS_P1;SDS_P2;PMS_P1;PMS_P2;Temp;Humidity;BMP_temperature;BMP_pressure;BME280_temperature;BME280_humidity;BME280_pressure;Samples;Min_cycle;Max_cycle;Signal;HPM_P1;HPM_P2
2023/12/06 00:01:02;;;;;;;70.20;43.58;;;0.70;99.90;;;;;;5053707;28;20052;-45
2023/12/06 00:03:28;;;;;;;68.07;42.45;;;0.60;99.90;;;;;;5058341;28;20044;-47
2023/12/06 00:05:54;;;;;;;68.05;42.80;;;0.70;99.90;;;;;;5066196;28;20140;-45
2023/12/06 00:08:19;;;;;;;65.60;41.58;;;0.70;99.90;;;;;;5064467;28;20371;-44
2023/12/06 00:10:47;;;;;;;68.63;41.25;;;0.60;99.90;;;;;;5064979;28;20482;-45
2023/12/06 00:13:13;;;;;;;66.47;41.42;;;0.70;99.90;;;;;;5060848;28;20481;-43
2023/12/06 00:15:38;;;;;;;68.90;43.08;;;0.60;99.90;;;;;;5064008;28;20036;-44
2023/12/06 00:18:04;;;;;;;69.00;42.03;;;0.70;99.90;;;;;;5059803;28;20039;-45
2023/12/06 00:20:30;;;;;;;66.68;41.05;;;0.60;99.90;;;;;;5067086;28;20069;-45
2023/12/06 00:22:55;;;;;;;66.30;39.55;;;0.60;99.90;;;;;;5063152;28;20044;-44
2023/12/06 00:25:21;;;;;;;63.13;41.58;;;0.60;99.90;;;;;;5064069;28;20075;-45
2023/12/06 00:27:46;;;;;;;62.67;40.33;;;0.70;99.90;;;;;;5058076;28;20074;-44
2023/12/06 00:30:19;;;;;;;59.60;38.25;;;0.70;99.90;;;;;;5098332;27;20417;-46
2023/12/06 00:32:44;;;;;;;63.90;40.67;;;0.70;99.90;;;;;;5080298;28;20044;-45
2023/12/06 00:35:10;;;;;;;60.10;39.95;;;0.60;99.90;;;;;;5081507;28;20503;-46
2023/12/06 00:37:36;;;;;;;63.72;41.03;;;0.70;99.90;;;;;;5079341;28;20456;-45
2023/12/06 00:40:01;;;;;;;66.72;41.35;;;0.70;99.90;;;;;;5084912;28;20492;-45
2023/12/06 00:42:27;;;;;;;64.82;41.05;;;0.70;99.90;;;;;;5084040;28;20394;-45
2023/12/06 00:44:52;;;;;;;62.53;40.58;;;0.60;99.90;;;;;;5079174;28;20040;-45
2023/12/06 00:47:18;;;;;;;61.35;39.83;;;0.70;99.90;;;;;;5080218;28;20055;-45
2023/12/06 00:49:44;;;;;;;59.97;37.90;;;0.70;99.90;;;;;;5083102;28;20041;-46
2023/12/06 00:52:09;;;;;;;63.83;40.75;;;0.60;99.90;;;;;;5084941;28;20040;-45
2023/12/06 00:54:35;;;;;;;59.22;39.33;;;0.70;99.90;;;;;;5078072;28;20397;-45
2023/12/06 00:57:00;;;;;;;61.03;40.97;;;0.60;99.90;;;;;;5082866;28;20475;-45
2023/12/06 00:59:26;;;;;;;58.78;39.70;;;0.70;99.90;;;;;;5085328;28;20041;-45
2023/12/06 01:01:52;;;;;;;56.45;37.40;;;0.70;99.90;;;;;;5083341;28;20036;-45
2023/12/06 01:04:17;;;;;;;63.15;40.35;;;0.60;99.90;;;;;;5082279;28;20442;-45
2023/12/06 01:06:43;;;;;;;60.72;40.63;;;0.70;99.90;;;;;;5079322;28;20046;-46
2023/12/06 01:09:08;;;;;;;61.15;39.92;;;0.70;99.90;;;;;;5083684;28;20040;-46
2023/12/06 01:11:34;;;;;;;61.88;40.33;;;0.70;99.90;;;;;;5082085;28;20051;-45
2023/12/06 01:13:59;;;;;;;60.60;39.33;;;0.70;99.90;;;;;;5080362;28;20048;-46
2023/12/06 01:16:25;;;;;;;55.45;38.92;;;0.70;99.90;;;;;;5077046;28;20044;-47
2023/12/06 01:18:51;;;;;;;58.53;38.65;;;0.70;99.90;;;;;;5078655;28;20040;-46
2023/12/06 01:21:16;;;;;;;58.08;39.40;;;0.70;99.90;;;;;;5076852;28;20062;-47
2023/12/06 01:23:42;;;;;;;55.85;39.30;;;0.70;99.90;;;;;;5079240;28;20478;-44
2023/12/06 01:26:08;;;;;;;56.40;38.45;;;0.70;99.90;;;;;;5078481;28;20408;-42
2023/12/06 01:28:33;;;;;;;59.03;38.85;;;0.70;99.90;;;;;;5082869;28;20051;-45
2023/12/06 01:30:59;;;;;;;58.33;39.55;;;0.70;99.90;;;;;;5096428;28;20040;-44
2023/12/06 01:33:24;;;;;;;58.47;39.63;;;0.70;99.90;;;;;;5091178;28;20682;-43
2023/12/06 01:35:50;;;;;;;60.28;40.55;;;0.70;99.90;;;;;;5095928;28;20618;-45
2023/12/06 01:38:16;;;;;;;59.40;40.05;;;0.80;99.90;;;;;;5097561;28;20130;-44
2023/12/06 01:40:41;;;;;;;59.88;40.03;;;0.70;99.90;;;;;;5089923;28;20481;-44
2023/12/06 01:43:08;;;;;;;63.13;40.25;;;0.80;99.90;;;;;;5083627;28;20032;-43
2023/12/06 01:45:33;;;;;;;56.63;39.05;;;0.70;99.90;;;;;;5082102;28;20059;-46
2023/12/06 01:48:00;;;;;;;61.55;40.92;;;0.80;99.90;;;;;;5085705;28;20422;-46
2023/12/06 01:50:27;;;;;;;59.95;39.80;;;0.80;99.90;;;;;;5088416;28;20036;-44
2023/12/06 01:52:57;;;;;;;59.80;40.50;;;0.80;99.90;;;;;;5085746;28;20430;-46
2023/12/06 01:55:23;;;;;;;58.90;40.13;;;0.80;99.90;;;;;;5087217;28;20263;-43
2023/12/06 01:57:50;;;;;;;60.45;39.33;;;0.80;99.90;;;;;;5087480;28;20039;-43
2023/12/06 02:00:16;;;;;;;58.13;39.00;;;0.80;99.90;;;;;;5083096;28;20096;-45
2023/12/06 02:02:42;;;;;;;66.18;42.17;;;0.80;99.90;;;;;;5082495;28;20119;-47
2023/12/06 02:05:08;;;;;;;66.40;42.95;;;1.00;99.90;;;;;;5088519;28;20372;-44
2023/12/06 02:07:35;;;;;;;62.08;41.60;;;0.70;99.90;;;;;;5087629;28;20077;-44
2023/12/06 02:10:02;;;;;;;66.82;42.10;;;1.00;99.90;;;;;;5082299;28;20036;-44
2023/12/06 02:12:27;;;;;;;64.22;40.78;;;0.80;99.90;;;;;;5082559;28;20090;-46
2023/12/06 02:14:57;;;;;;;65.22;43.03;;;1.10;99.90;;;;;;5079442;28;20560;-43
2023/12/06 02:17:23;;;;;;;63.53;41.33;;;0.80;99.90;;;;;;5086249;28;20416;-45
2023/12/06 02:19:50;;;;;;;59.40;40.42;;;1.00;99.90;;;;;;5092053;28;20032;-44
2023/12/06 02:22:15;;;;;;;66.22;42.35;;;0.90;99.90;;;;;;5091110;28;20048;-43
2023/12/06 02:24:42;;;;;;;63.38;41.40;;;1.00;99.90;;;;;;5082055;28;20032;-43
2023/12/06 02:27:07;;;;;;;68.03;42.17;;;0.90;99.90;;;;;;5084206;28;20036;-46
2023/12/06 02:29:33;;;;;;;68.03;43.03;;;0.80;99.90;;;;;;5083221;28;20052;-44
2023/12/06 02:31:58;;;;;;;71.03;43.05;;;0.80;99.90;;;;;;5085290;28;20052;-44
2023/12/06 02:34:26;;;;;;;68.05;41.95;;;1.00;99.90;;;;;;5083866;28;20044;-44
2023/12/06 02:36:55;;;;;;;67.95;42.20;;;0.80;99.90;;;;;;5086354;28;20113;-43
2023/12/06 02:39:21;;;;;;;68.47;42.60;;;0.90;99.90;;;;;;5085035;28;20040;-45
2023/12/06 02:41:47;;;;;;;62.47;41.50;;;0.80;99.90;;;;;;5084072;28;20117;-45
2023/12/06 02:44:12;;;;;;;67.90;41.78;;;1.00;99.90;;;;;;5082744;28;20040;-44
2023/12/06 02:46:38;;;;;;;66.65;42.30;;;1.00;99.90;;;;;;5087141;28;20072;-44
2023/12/06 02:49:04;;;;;;;65.18;40.05;;;0.90;99.90;;;;;;5087040;28;20422;-43
2023/12/06 02:51:29;;;;;;;67.38;42.20;;;1.10;99.90;;;;;;5085639;28;20037;-44
2023/12/06 02:53:55;;;;;;;72.38;42.05;;;1.10;99.90;;;;;;5086482;28;20036;-42
2023/12/06 02:56:21;;;;;;;67.75;40.70;;;1.00;99.90;;;;;;5087129;28;20090;-43
2023/12/06 02:58:46;;;;;;;63.40;41.13;;;1.20;99.90;;;;;;5085114;28;20055;-44
2023/12/06 03:01:12;;;;;;;70.18;40.15;;;0.90;99.90;;;;;;5082091;28;20370;-45
2023/12/06 03:03:38;;;;;;;67.55;41.65;;;1.00;99.90;;;;;;5087958;28;20036;-45
2023/12/06 03:06:03;;;;;;;69.93;41.00;;;1.00;99.90;;;;;;5087080;28;20046;-44
2023/12/06 03:08:29;;;;;;;66.20;39.53;;;1.10;99.90;;;;;;5081339;28;20230;-45
2023/12/06 03:10:55;;;;;;;71.82;40.55;;;1.00;99.90;;;;;;5082755;28;20048;-45
2023/12/06 03:13:20;;;;;;;66.75;39.72;;;1.20;99.90;;;;;;5083954;28;20036;-45
2023/12/06 03:15:46;;;;;;;63.75;39.45;;;0.90;99.90;;;;;;5081778;28;20181;-45
2023/12/06 03:18:11;;;;;;;64.30;39.50;;;1.00;99.90;;;;;;5079387;28;20036;-44
2023/12/06 03:20:37;;;;;;;65.20;39.05;;;0.90;99.90;;;;;;5063460;28;20698;-45
2023/12/06 03:23:03;;;;;;;62.65;37.90;;;0.90;99.90;;;;;;5083764;28;20148;-44
2023/12/06 03:25:29;;;;;;;64.30;37.95;;;1.00;99.90;;;;;;5086955;28;20086;-45
2023/12/06 03:27:55;;;;;;;63.28;38.92;;;1.10;99.90;;;;;;5084484;28;20079;-45
2023/12/06 03:30:21;;;;;;;63.00;37.75;;;0.90;99.90;;;;;;5087156;28;20052;-45
2023/12/06 03:32:46;;;;;;;66.45;39.83;;;1.20;99.90;;;;;;5084952;28;20048;-46
2023/12/06 03:35:12;;;;;;;67.47;38.47;;;1.10;99.90;;;;;;5083961;28;20033;-44
2023/12/06 03:37:38;;;;;;;70.13;39.70;;;1.10;99.90;;;;;;5082067;28;20377;-45
2023/12/06 03:40:04;;;;;;;65.10;38.50;;;1.00;99.90;;;;;;5084313;28;20461;-44
2023/12/06 03:42:29;;;;;;;68.40;37.60;;;1.00;99.90;;;;;;5087720;28;20052;-44
2023/12/06 03:44:55;;;;;;;62.67;38.97;;;1.10;99.90;;;;;;5084610;28;20035;-44
2023/12/06 03:47:21;;;;;;;61.03;38.15;;;1.10;99.90;;;;;;5083380;28;20047;-43
2023/12/06 03:49:46;;;;;;;64.60;37.47;;;0.90;99.90;;;;;;5087892;28;20590;-43
2023/12/06 03:52:12;;;;;;;63.75;36.67;;;1.10;99.90;;;;;;5082972;28;20043;-43
2023/12/06 03:54:37;;;;;;;66.22;37.88;;;1.10;99.90;;;;;;5082666;28;20113;-45
2023/12/06 03:57:03;;;;;;;64.13;37.88;;;0.90;99.90;;;;;;5084700;28;20059;-44
2023/12/06 03:59:29;;;;;;;61.45;37.30;;;1.10;99.90;;;;;;5083675;28;20048;-44
2023/12/06 04:01:54;;;;;;;62.53;38.95;;;0.90;99.90;;;;;;5084732;28;20040;-45
2023/12/06 04:04:20;;;;;;;63.55;39.05;;;0.90;99.90;;;;;;5083834;28;20070;-44
2023/12/06 04:06:46;;;;;;;64.20;38.25;;;1.00;99.90;;;;;;5083365;28;20074;-45
2023/12/06 04:09:11;;;;;;;58.72;35.88;;;1.00;99.90;;;;;;5085747;28;20081;-43
2023/12/06 04:11:37;;;;;;;58.90;36.47;;;1.10;99.90;;;;;;5087515;28;20058;-44
2023/12/06 04:14:03;;;;;;;61.05;36.90;;;1.00;99.90;;;;;;5082662;28;20040;-45
2023/12/06 04:16:31;;;;;;;60.22;36.50;;;1.00;99.90;;;;;;5085762;28;20040;-44
2023/12/06 04:18:57;;;;;;;63.15;36.55;;;1.10;99.90;;;;;;5081077;28;20522;-44
2023/12/06 04:21:23;;;;;;;63.17;37.63;;;1.00;99.90;;;;;;5086506;28;20111;-45
2023/12/06 04:23:48;;;;;;;56.60;36.15;;;1.10;99.90;;;;;;5081084;28;20395;-44
2023/12/06 04:26:14;;;;;;;57.25;35.25;;;1.00;99.90;;;;;;5072636;28;20392;-46
2023/12/06 04:28:40;;;;;;;56.95;34.80;;;0.90;99.90;;;;;;5085180;28;20055;-46
2023/12/06 04:31:06;;;;;;;54.40;34.95;;;1.10;99.90;;;;;;5084166;28;20048;-45
2023/12/06 04:33:32;;;;;;;60.97;36.20;;;1.10;99.90;;;;;;5085475;28;20195;-47
2023/12/06 04:35:57;;;;;;;59.30;35.78;;;1.10;99.90;;;;;;5083153;28;20034;-45
2023/12/06 04:38:23;;;;;;;58.95;36.15;;;1.10;99.90;;;;;;5086949;28;20047;-46
2023/12/06 04:40:48;;;;;;;57.75;36.13;;;1.10;99.90;;;;;;5084097;28;20036;-46
2023/12/06 04:43:16;;;;;;;56.97;35.05;;;1.10;99.90;;;;;;5083208;28;20033;-44
2023/12/06 04:45:42;;;;;;;58.70;35.33;;;1.10;99.90;;;;;;5080842;28;20051;-45
2023/12/06 04:48:07;;;;;;;51.88;34.13;;;1.10;99.90;;;;;;5084993;28;20040;-43
2023/12/06 04:50:33;;;;;;;53.65;34.72;;;0.90;99.90;;;;;;5084517;28;20056;-43
2023/12/06 04:52:58;;;;;;;51.45;33.53;;;1.10;99.90;;;;;;5064553;28;20362;-44
2023/12/06 04:55:24;;;;;;;49.80;33.03;;;1.10;99.90;;;;;;5085619;28;20040;-44
2023/12/06 04:57:50;;;;;;;51.88;34.78;;;1.30;99.90;;;;;;5083641;28;20055;-44
2023/12/06 05:00:17;;;;;;;50.92;34.08;;;0.90;99.90;;;;;;5086264;28;20047;-44
2023/12/06 05:02:42;;;;;;;48.03;32.13;;;1.00;99.90;;;;;;5086915;28;20074;-43
2023/12/06 05:05:08;;;;;;;54.65;34.15;;;1.00;99.90;;;;;;5086211;28;20087;-45
2023/12/06 05:07:34;;;;;;;54.88;34.97;;;1.00;99.90;;;;;;5085125;28;20477;-44
2023/12/06 05:09:59;;;;;;;51.03;33.97;;;0.90;99.90;;;;;;5085996;28;20048;-45
2023/12/06 05:12:25;;;;;;;56.03;35.72;;;1.00;99.90;;;;;;5082521;28;20032;-45
2023/12/06 05:14:50;;;;;;;55.33;34.53;;;1.00;99.90;;;;;;5084913;28;20138;-45
2023/12/06 05:17:16;;;;;;;49.95;32.20;;;1.20;99.90;;;;;;5084847;28;20130;-44
2023/12/06 05:19:41;;;;;;;52.47;33.60;;;1.00;99.90;;;;;;5091582;28;20044;-44
2023/12/06 05:22:07;;;;;;;54.75;33.40;;;1.10;99.90;;;;;;5084714;28;20044;-44
2023/12/06 05:24:33;;;;;;;57.78;34.20;;;1.10;99.90;;;;;;5085457;28;20036;-46
2023/12/06 05:26:58;;;;;;;51.45;33.08;;;1.10;99.90;;;;;;5082378;28;20032;-46
2023/12/06 05:29:24;;;;;;;55.40;34.13;;;1.10;99.90;;;;;;5087119;28;20443;-45
2023/12/06 05:31:49;;;;;;;54.33;33.70;;;1.10;99.90;;;;;;5086581;28;20516;-44
2023/12/06 05:34:15;;;;;;;59.40;35.08;;;1.00;99.90;;;;;;5088690;28;20130;-44
2023/12/06 05:36:40;;;;;;;54.60;34.85;;;1.10;99.90;;;;;;5089543;28;20028;-44
2023/12/06 05:39:07;;;;;;;53.28;35.38;;;1.00;99.90;;;;;;5088599;28;20059;-44
2023/12/06 05:41:33;;;;;;;52.58;34.13;;;1.20;99.90;;;;;;5088079;28;20035;-44
2023/12/06 05:43:58;;;;;;;56.67;33.83;;;1.10;99.90;;;;;;5065810;28;20508;-45
2023/12/06 05:46:24;;;;;;;52.90;34.25;;;1.30;99.90;;;;;;5089510;28;20044;-45
2023/12/06 05:48:50;;;;;;;50.10;33.92;;;1.10;99.90;;;;;;5087381;28;20392;-44
2023/12/06 05:51:15;;;;;;;51.97;32.42;;;1.30;99.90;;;;;;5086892;28;20028;-45
2023/12/06 05:53:41;;;;;;;50.33;33.72;;;;;;;;;;5086996;28;20518;-45
2023/12/06 05:56:09;;;;;;;49.60;32.22;;;1.10;99.90;;;;;;5086364;28;20474;-48
2023/12/06 05:58:36;;;;;;;54.60;34.95;;;1.00;99.90;;;;;;5084574;28;20043;-48
2023/12/06 06:01:02;;;;;;;44.38;31.30;;;1.00;99.90;;;;;;5089731;28;20040;-44
2023/12/06 06:03:28;;;;;;;49.55;32.38;;;1.10;99.90;;;;;;5086147;28;20048;-45
2023/12/06 06:05:54;;;;;;;46.85;31.33;;;1.20;99.90;;;;;;5060766;28;20044;-44
2023/12/06 06:08:20;;;;;;;49.67;31.92;;;1.10;99.90;;;;;;5080221;28;20415;-46
2023/12/06 06:10:45;;;;;;;48.88;31.77;;;1.10;99.90;;;;;;5080829;28;20040;-44
2023/12/06 06:13:11;;;;;;;47.95;31.25;;;1.20;99.90;;;;;;5083130;28;20135;-44
2023/12/06 06:15:37;;;;;;;44.30;30.05;;;1.10;99.90;;;;;;5077630;28;20404;-44
2023/12/06 06:18:05;;;;;;;46.15;30.92;;;1.10;99.90;;;;;;5082615;28;20048;-44
2023/12/06 06:20:32;;;;;;;41.60;29.85;;;1.20;99.90;;;;;;5081590;28;20051;-44
2023/12/06 06:22:57;;;;;;;45.28;30.20;;;1.20;99.90;;;;;;5063247;28;20514;-45
2023/12/06 06:25:23;;;;;;;44.83;30.48;;;1.10;99.90;;;;;;5081770;28;20162;-46
2023/12/06 06:27:48;;;;;;;42.67;29.35;;;1.10;99.90;;;;;;5079937;28;20036;-46
2023/12/06 06:30:14;;;;;;;41.65;29.50;;;1.50;99.90;;;;;;5078757;28;20044;-46
2023/12/06 06:32:40;;;;;;;44.03;29.83;;;1.40;99.90;;;;;;5080912;28;20140;-44
2023/12/06 06:35:07;;;;;;;39.67;28.75;;;1.20;99.90;;;;;;5082110;28;20744;-45
2023/12/06 06:37:33;;;;;;;40.30;28.45;;;1.40;99.90;;;;;;5087342;28;20067;-45
2023/12/06 06:39:59;;;;;;;38.97;28.20;;;1.20;99.90;;;;;;5083971;28;20406;-45
2023/12/06 06:42:24;;;;;;;40.92;27.80;;;1.20;99.90;;;;;;5090083;28;20032;-43
2023/12/06 06:44:51;;;;;;;40.70;28.80;;;1.40;99.90;;;;;;5086170;28;20044;-49
2023/12/06 06:47:17;;;;;;;39.40;28.00;;;1.40;99.90;;;;;;5082907;28;20048;-44
2023/12/06 06:49:45;;;;;;;45.08;29.38;;;1.30;99.90;;;;;;5086237;28;20039;-44
2023/12/06 06:52:11;;;;;;;39.13;28.00;;;1.30;99.90;;;;;;5084447;28;20101;-45
2023/12/06 06:54:36;;;;;;;40.63;29.17;;;1.30;99.90;;;;;;5084079;28;20028;-46
2023/12/06 06:57:03;;;;;;;41.60;28.10;;;1.30;99.90;;;;;;5088420;28;20123;-43
2023/12/06 06:59:29;;;;;;;41.17;28.00;;;1.40;99.90;;;;;;5083906;28;20577;-45
2023/12/06 07:01:55;;;;;;;44.85;30.30;;;1.30;99.90;;;;;;5086044;28;20062;-44
2023/12/06 07:04:20;;;;;;;43.03;30.52;;;1.40;99.90;;;;;;5084957;28;20434;-44
2023/12/06 07:06:46;;;;;;;43.00;29.92;;;1.50;99.90;;;;;;5082456;28;20043;-44
2023/12/06 07:09:12;;;;;;;42.80;30.50;;;1.40;99.90;;;;;;5083392;28;20047;-44
2023/12/06 07:11:38;;;;;;;44.70;30.88;;;;;;;;;;5089835;28;20062;-44
2023/12/06 07:14:03;;;;;;;46.60;31.30;;;1.40;99.90;;;;;;5082200;28;20051;-43
2023/12/06 07:16:29;;;;;;;43.80;31.08;;;1.50;99.90;;;;;;5085995;28;20060;-45
2023/12/06 07:18:55;;;;;;;47.35;31.13;;;1.40;99.90;;;;;;5088706;28;20400;-44
2023/12/06 07:21:20;;;;;;;54.80;31.83;;;1.60;99.90;;;;;;5089242;28;20040;-45
2023/12/06 07:23:46;;;;;;;46.45;31.45;;;1.50;99.90;;;;;;5091410;28;20114;-45
2023/12/06 07:26:11;;;;;;;51.63;31.75;;;1.40;99.90;;;;;;5087598;28;20563;-45
2023/12/06 07:28:37;;;;;;;47.38;30.98;;;1.50;99.90;;;;;;5088659;28;20052;-48
2023/12/06 07:31:03;;;;;;;46.47;31.73;;;1.60;99.90;;;;;;5087292;28;20075;-44
2023/12/06 07:33:29;;;;;;;50.80;32.45;;;1.50;99.90;;;;;;5088760;28;20107;-42
2023/12/06 07:35:54;;;;;;;49.13;32.28;;;1.70;99.90;;;;;;5087321;28;20733;-43
2023/12/06 07:38:22;;;;;;;45.70;31.48;;;1.50;99.90;;;;;;5083722;28;20047;-43
2023/12/06 07:40:47;;;;;;;46.90;32.27;;;1.60;99.90;;;;;;5087212;28;20124;-44
2023/12/06 07:43:13;;;;;;;48.55;33.55;;;1.60;99.90;;;;;;5085749;28;20333;-44
2023/12/06 07:45:39;;;;;;;48.85;33.15;;;1.60;99.90;;;;;;5087789;28;20040;-44
2023/12/06 07:48:04;;;;;;;47.72;32.05;;;1.70;99.90;;;;;;5085091;28;20036;-46
2023/12/06 07:50:30;;;;;;;52.42;33.20;;;1.60;99.90;;;;;;5088577;28;20081;-44
2023/12/06 07:52:56;;;;;;;50.80;33.00;;;1.80;99.90;;;;;;5084568;28;20052;-44
2023/12/06 07:55:22;;;;;;;50.10;33.83;;;;;;;;;;5087286;28;20043;-44
2023/12/06 07:57:48;;;;;;;51.13;33.17;;;1.90;99.90;;;;;;5089880;28;20063;-44
2023/12/06 08:00:15;;;;;;;51.30;34.47;;;1.70;99.90;;;;;;5072353;28;20043;-43
2023/12/06 08:02:42;;;;;;;48.63;33.72;;;;;;;;;;5072885;28;20089;-46
2023/12/06 08:05:11;;;;;;;54.75;33.33;;;;;;;;;;5089697;28;20048;-46
2023/12/06 08:07:39;;;;;;;51.50;34.15;;;1.90;99.90;;;;;;5090089;28;20044;-45
2023/12/06 08:10:08;;;;;;;45.58;32.58;;;1.90;99.90;;;;;;5090492;28;20444;-44
2023/12/06 08:12:34;;;;;;;;;;;1.80;99.90;;;;;;5088853;28;20112;-45
2023/12/06 08:14:59;;;;;;;46.75;30.63;;;2.00;99.90;;;;;;5089308;28;20281;-44
2023/12/06 08:17:25;;;;;;;48.45;32.15;;;1.90;99.90;;;;;;5089217;28;20369;-44
2023/12/06 08:19:50;;;;;;;49.67;32.97;;;1.90;99.90;;;;;;5089356;28;20105;-44
2023/12/06 08:22:16;;;;;;;49.85;31.85;;;1.90;99.90;;;;;;5088834;28;20047;-47
2023/12/06 08:24:41;;;;;;;46.10;30.30;;;2.10;99.90;;;;;;5090566;28;20474;-44
2023/12/06 08:27:07;;;;;;;45.58;31.05;;;2.00;99.90;;;;;;5090319;28;20060;-44
2023/12/06 08:29:33;;;;;;;45.63;31.67;;;2.00;99.90;;;;;;5090485;28;20051;-45
2023/12/06 08:31:58;;;;;;;46.35;30.88;;;2.10;99.90;;;;;;5088111;28;20127;-44
2023/12/06 08:34:24;;;;;;;48.90;32.10;;;2.20;99.90;;;;;;5090355;28;20036;-43
2023/12/06 08:36:50;;;;;;;46.38;30.70;;;2.20;99.90;;;;;;5090282;28;20063;-43
2023/12/06 08:39:16;;;;;;;43.10;30.98;;;2.10;99.90;;;;;;5089845;28;20048;-44
2023/12/06 08:41:41;;;;;;;40.85;29.30;;;2.10;99.90;;;;;;5090726;28;20508;-43
2023/12/06 08:44:07;;;;;;;42.30;30.45;;;2.30;99.90;;;;;;5073506;28;20040;-44
2023/12/06 08:46:32;;;;;;;40.42;29.33;;;2.30;99.90;;;;;;5085449;28;20549;-44
2023/12/06 08:48:58;;;;;;;38.40;29.05;;;2.20;99.90;;;;;;5089877;28;20036;-48
2023/12/06 08:51:24;;;;;;;38.33;29.38;;;2.30;99.90;;;;;;5093945;28;20396;-47
2023/12/06 08:53:49;;;;;;;40.05;29.35;;;2.30;99.90;;;;;;5094096;28;20155;-45
2023/12/06 08:56:15;;;;;;;35.92;28.83;;;2.30;99.90;;;;;;5093025;28;20036;-46
2023/12/06 08:58:40;;;;;;;42.50;29.88;;;2.40;99.90;;;;;;5059244;28;20069;-43
2023/12/06 09:01:06;;;;;;;41.42;30.08;;;2.40;99.90;;;;;;5093652;28;20036;-43
2023/12/06 09:03:32;;;;;;;39.67;29.60;;;2.40;99.90;;;;;;5093641;28;20473;-44
2023/12/06 09:05:57;;;;;;;39.42;28.70;;;2.40;99.90;;;;;;5076925;28;20048;-47
2023/12/06 09:08:23;;;;;;;39.97;28.80;;;2.50;99.90;;;;;;5089093;28;20040;-46
2023/12/06 09:10:52;;;;;;;40.15;30.15;;;2.50;99.90;;;;;;5088403;28;20032;-45
2023/12/06 09:13:18;;;;;;;43.47;28.60;;;2.50;99.90;;;;;;5091837;28;20083;-48
2023/12/06 09:15:44;;;;;;;43.25;29.75;;;2.50;99.90;;;;;;5093988;28;20067;-45
2023/12/06 09:18:10;;;;;;;42.92;29.58;;;2.60;99.90;;;;;;5093485;28;20078;-45
2023/12/06 09:20:36;;;;;;;36.00;28.27;;;2.70;99.90;;;;;;5093343;28;20061;-45
2023/12/06 09:23:01;;;;;;;41.35;29.80;;;2.70;99.90;;;;;;5094137;28;20040;-45
2023/12/06 09:25:27;;;;;;;34.85;27.55;;;2.70;99.90;;;;;;5076084;28;20040;-44
2023/12/06 09:27:53;;;;;;;35.60;28.35;;;2.80;99.90;;;;;;5092972;28;20056;-45
2023/12/06 09:30:19;;;;;;;34.72;27.27;;;2.70;99.90;;;;;;5075081;28;20077;-43
2023/12/06 09:32:45;;;;;;;38.50;28.38;;;2.70;99.90;;;;;;5093909;28;20044;-44
2023/12/06 09:35:11;;;;;;;37.47;27.70;;;2.70;99.90;;;;;;5076054;28;20047;-44
2023/12/06 09:37:37;;;;;;;37.90;27.92;;;2.80;99.90;;;;;;5094474;28;20491;-46
2023/12/06 09:40:02;;;;;;;34.22;27.05;;;2.80;99.90;;;;;;5089642;28;20047;-48
2023/12/06 09:42:29;;;;;;;41.38;29.20;;;2.90;99.90;;;;;;5094562;28;20405;-43
2023/12/06 09:44:58;;;;;;;34.63;26.58;;;2.90;99.90;;;;;;5094613;28;20047;-44
2023/12/06 09:47:24;;;;;;;31.40;26.55;;;2.80;99.90;;;;;;5093787;28;20472;-45
2023/12/06 09:49:50;;;;;;;37.30;27.52;;;2.80;99.90;;;;;;5075669;28;20061;-44
2023/12/06 09:52:21;;;;;;;37.53;27.98;;;3.00;99.90;;;;;;5093698;28;20083;-44
2023/12/06 09:54:51;;;;;;;37.03;27.27;;;3.00;99.90;;;;;;5093286;28;20138;-45
2023/12/06 09:57:17;;;;;;;38.15;27.50;;;3.00;99.90;;;;;;5095392;28;20075;-45
2023/12/06 09:59:43;;;;;;;34.10;26.65;;;2.90;99.90;;;;;;5092904;28;20446;-43
2023/12/06 10:02:08;;;;;;;35.80;26.45;;;3.00;99.90;;;;;;5073766;28;20105;-44
2023/12/06 10:04:35;;;;;;;37.25;27.13;;;3.00;99.90;;;;;;5091111;28;20040;-45
2023/12/06 10:07:01;;;;;;;32.50;24.80;;;3.00;99.90;;;;;;5092999;28;20086;-45
2023/12/06 10:09:27;;;;;;;32.78;23.42;;;3.10;99.90;;;;;;5091524;28;20396;-44
2023/12/06 10:12:03;;;;;;;33.15;26.38;;;3.00;99.90;;;;;;5092706;28;20438;-44
2023/12/06 10:14:28;;;;;;;31.52;24.10;;;3.10;99.90;;;;;;5092866;28;20103;-43
2023/12/06 10:16:54;;;;;;;30.30;24.00;;;3.10;99.90;;;;;;5075986;28;20400;-47
2023/12/06 10:19:22;;;;;;;31.85;23.27;;;3.10;99.90;;;;;;5090142;28;20127;-44
2023/12/06 10:21:49;;;;;;;26.92;23.50;;;3.10;99.90;;;;;;5092478;28;20516;-44
2023/12/06 10:24:14;;;;;;;32.13;24.30;;;3.10;99.90;;;;;;5090269;28;20400;-45
2023/12/06 10:26:40;;;;;;;30.25;23.60;;;3.10;99.90;;;;;;5074378;28;20046;-46
2023/12/06 10:29:06;;;;;;;27.98;22.05;;;3.10;99.90;;;;;;5092180;28;20397;-45
2023/12/06 10:31:45;;;;;;;26.08;22.23;;;3.10;99.90;;;;;;5092873;28;20080;-45
2023/12/06 10:34:13;;;;;;;30.50;23.10;;;3.20;99.90;;;;;;5093353;28;20044;-44
2023/12/06 10:36:40;;;;;;;25.83;22.15;;;;;;;;;;5092291;28;20124;-44
2023/12/06 10:39:11;;;;;;;28.45;21.88;;;3.30;99.90;;;;;;5091735;28;20032;-44
2023/12/06 10:41:40;;;;;;;27.55;21.95;;;3.30;99.90;;;;;;5092803;28;20070;-44
2023/12/06 10:44:09;;;;;;;33.30;23.38;;;3.30;99.90;;;;;;5091033;28;20381;-44
2023/12/06 10:46:36;;;;;;;32.83;24.15;;;3.30;99.90;;;;;;5092152;28;20115;-44
2023/12/06 10:49:03;;;;;;;24.92;21.23;;;3.30;99.90;;;;;;5088097;28;20093;-44
2023/12/06 10:51:29;;;;;;;25.42;20.80;;;3.30;99.90;;;;;;5090470;28;20065;-46
2023/12/06 10:53:59;;;;;;;26.35;21.10;;;3.30;99.90;;;;;;5088953;28;20397;-48
2023/12/06 10:56:26;;;;;;;24.65;20.83;;;3.40;99.90;;;;;;5088869;28;20408;-45
2023/12/06 10:58:53;;;;;;;23.88;20.90;;;3.40;99.90;;;;;;5091191;28;20067;-43
2023/12/06 11:01:20;;;;;;;23.67;20.80;;;3.40;99.90;;;;;;5091224;28;20055;-43
2023/12/06 11:03:45;;;;;;;26.98;21.25;;;3.40;99.90;;;;;;5089339;28;20040;-47
2023/12/06 11:06:43;;;;;;;27.27;21.23;;;3.40;99.90;;;;;;5092066;28;20504;-44
2023/12/06 11:09:14;;;;;;;24.88;20.35;;;3.50;99.90;;;;;;5090655;28;20066;-44
2023/12/06 11:11:48;;;;;;;25.13;20.80;;;;;;;;;;5087897;28;20581;-45
2023/12/06 11:14:41;;;;;;;24.65;20.75;;;3.50;99.90;;;;;;5087858;28;20094;-45
2023/12/06 11:17:34;;;;;;;22.40;20.00;;;3.60;99.90;;;;;;5089219;28;20491;-45
2023/12/06 11:20:00;;;;;;;28.70;20.77;;;3.70;99.90;;;;;;5087786;28;20463;-46
2023/12/06 11:22:26;;;;;;;23.88;20.52;;;3.70;99.90;;;;;;5089148;28;20032;-46
2023/12/06 11:24:52;;;;;;;28.73;20.70;;;3.70;99.90;;;;;;5089336;28;20032;-44
2023/12/06 11:27:20;;;;;;;25.48;20.33;;;3.70;99.90;;;;;;5090469;28;20039;-48
2023/12/06 11:29:47;;;;;;;25.45;19.92;;;3.70;99.90;;;;;;5088902;28;20083;-47
2023/12/06 11:32:13;;;;;;;24.35;19.90;;;3.80;99.90;;;;;;5091006;28;20109;-45
2023/12/06 11:34:40;;;;;;;25.13;19.45;;;3.80;99.90;;;;;;5086731;28;20044;-44
2023/12/06 11:37:17;;;;;;;26.23;19.80;;;3.80;99.90;;;;;;5087536;28;20040;-43
2023/12/06 11:40:07;;;;;;;22.17;18.58;;;3.80;99.90;;;;;;5089772;28;20036;-44
2023/12/06 11:42:37;;;;;;;25.65;19.77;;;3.80;99.90;;;;;;5088055;28;20071;-44
2023/12/06 11:45:05;;;;;;;21.80;19.42;;;3.80;99.90;;;;;;5086740;28;20063;-46
2023/12/06 11:47:35;;;;;;;25.55;19.85;;;3.80;99.90;;;;;;5086866;28;20048;-44
2023/12/06 11:50:01;;;;;;;25.00;18.63;;;3.80;99.90;;;;;;5087936;28;20043;-44
2023/12/06 11:52:26;;;;;;;22.48;18.58;;;3.80;99.90;;;;;;5092708;28;20044;-43
2023/12/06 11:54:53;;;;;;;22.58;17.38;;;3.80;99.90;;;;;;5089523;28;20463;-46
2023/12/06 11:57:19;;;;;;;22.77;18.35;;;3.80;99.90;;;;;;5077161;28;20044;-47
2023/12/06 11:59:46;;;;;;;21.90;17.95;;;3.80;99.90;;;;;;5091630;28;20040;-47
2023/12/06 12:02:12;;;;;;;20.73;17.50;;;3.80;99.90;;;;;;5092071;28;20048;-46
2023/12/06 12:04:39;;;;;;;19.50;17.40;;;3.80;99.90;;;;;;5073844;28;20459;-45
2023/12/06 12:07:04;;;;;;;21.02;17.50;;;3.90;99.90;;;;;;5074403;28;20036;-44
2023/12/06 12:09:31;;;;;;;20.83;17.85;;;3.90;99.90;;;;;;5069462;28;20040;-46
2023/12/06 12:11:57;;;;;;;20.33;17.23;;;3.80;99.90;;;;;;5072114;28;20448;-47
2023/12/06 12:14:22;;;;;;;20.40;18.13;;;3.90;99.90;;;;;;5072087;28;20067;-46
2023/12/06 12:16:49;;;;;;;20.15;17.35;;;3.90;99.90;;;;;;5074030;28;20493;-47
2023/12/06 12:19:15;;;;;;;20.73;18.60;;;3.90;99.90;;;;;;5090960;28;20048;-49
2023/12/06 12:21:41;;;;;;;21.23;18.88;;;3.90;99.90;;;;;;5073207;28;20044;-44
2023/12/06 12:24:09;;;;;;;20.83;18.73;;;3.90;99.90;;;;;;5071551;28;20040;-45
2023/12/06 12:26:37;;;;;;;23.05;18.08;;;3.90;99.90;;;;;;5071613;28;20044;-48
2023/12/06 12:29:02;;;;;;;22.23;17.70;;;3.90;99.90;;;;;;5091194;28;20094;-46
2023/12/06 12:31:31;;;;;;;21.67;17.83;;;3.90;99.90;;;;;;5090655;28;20048;-47
2023/12/06 12:33:57;;;;;;;20.90;18.23;;;3.90;99.90;;;;;;5091452;28;20119;-46